createdAt,value
2018-04-24T00:00:04.225Z,84.10
2018-04-24T00:02:42.765Z,84.00
2018-04-24T00:05:29.210Z,84.60
2018-04-24T00:08:13.568Z,84.40
2018-04-24T00:10:47.505Z,84.60
2018-04-24T00:13:26.918Z,84.50
2018-04-24T00:15:57.811Z,84.70
2018-04-24T00:18:37.206Z,84.20
2018-04-24T00:21:15.757Z,84.30
2018-04-24T00:23:57.896Z,84.50
2018-04-24T00:26:27.578Z,84.80
2018-04-24T00:28:55.074Z,84.70
2018-04-24T00:31:23.711Z,85.10
2018-04-24T00:33:51.246Z,85.50
2018-04-24T00:36:18.935Z,85.10
2018-04-24T00:38:47.624Z,85.80
2018-04-24T00:41:17.253Z,85.00
2018-04-24T00:43:45.917Z,85.30
2018-04-24T00:46:18.284Z,85.30
2018-04-24T00:48:55.547Z,85.60
2018-04-24T00:51:27.644Z,85.60
2018-04-24T00:53:57.308Z,85.90
2018-04-24T00:56:25.036Z,85.70
2018-04-24T01:01:46.391Z,86.00
2018-04-24T01:04:18.442Z,86.00
2018-04-24T01:09:50.204Z,86.30
2018-04-24T01:12:32.349Z,86.70
2018-04-24T01:15:03.867Z,86.20
2018-04-24T01:17:31.396Z,86.10
2018-04-24T01:20:00.005Z,86.20
2018-04-24T01:22:50.561Z,86.70
2018-04-24T01:25:18.272Z,86.70
2018-04-24T01:27:46.992Z,86.40
2018-04-24T01:30:25.142Z,86.80
2018-04-24T01:32:54.670Z,86.40
2018-04-24T01:35:22.230Z,86.20
2018-04-24T01:37:51.840Z,86.50
2018-04-24T01:40:21.474Z,86.10
2018-04-24T01:42:51.060Z,86.60
2018-04-24T01:45:20.670Z,86.50
2018-04-24T01:47:53.986Z,86.20
2018-04-24T01:50:23.569Z,86.30
2018-04-24T01:52:51.058Z,86.50
2018-04-24T01:55:35.669Z,86.60
2018-04-24T01:58:16.038Z,86.80
2018-04-24T02:00:45.692Z,86.20
2018-04-24T02:03:24.766Z,86.50
2018-04-24T02:05:56.860Z,87.20
2018-04-24T02:08:31.054Z,86.90
2018-04-24T02:10:59.767Z,87.20
2018-04-24T02:13:29.374Z,87.40
2018-04-24T02:15:58.112Z,86.80
2018-04-24T02:18:32.580Z,86.60
2018-04-24T02:21:02.210Z,86.80
2018-04-24T02:23:36.682Z,86.80
2018-04-24T02:26:19.190Z,86.40
2018-04-24T02:28:47.670Z,86.70
2018-04-24T02:31:15.403Z,85.80
2018-04-24T02:33:43.785Z,85.50
2018-04-24T02:36:11.286Z,85.50
2018-04-24T02:38:50.046Z,85.40
2018-04-24T02:41:23.617Z,84.90
2018-04-24T02:43:54.505Z,85.30
2018-04-24T02:46:24.782Z,85.80
2018-04-24T02:48:58.328Z,85.80
2018-04-24T02:51:33.408Z,85.50
2018-04-24T02:54:17.743Z,85.60
2018-04-24T02:56:45.277Z,84.80
2018-04-24T02:59:24.064Z,84.90
2018-04-24T03:02:01.984Z,84.60
2018-04-24T03:04:47.200Z,84.60
2018-04-24T03:07:15.682Z,84.60
2018-04-24T03:09:43.436Z,85.00
2018-04-24T03:12:10.964Z,85.20
2018-04-24T03:14:40.479Z,85.00
2018-04-24T03:17:11.032Z,84.70
2018-04-24T03:19:39.697Z,85.10
2018-04-24T03:22:16.954Z,86.00
2018-04-24T03:25:01.268Z,85.70
2018-04-24T03:27:42.302Z,85.50
2018-04-24T03:30:15.880Z,85.50
2018-04-24T03:32:45.567Z,85.50
2018-04-24T03:35:13.325Z,85.40
2018-04-24T03:37:53.023Z,85.60
2018-04-24T03:40:23.861Z,85.60
2018-04-24T03:42:52.563Z,85.60
2018-04-24T03:45:21.269Z,85.70
2018-04-24T03:47:51.495Z,85.70
2018-04-24T03:50:21.147Z,85.60
2018-04-24T03:52:49.789Z,86.00
2018-04-24T03:55:20.660Z,85.50
2018-04-24T03:57:52.074Z,85.70
2018-04-24T04:00:25.033Z,85.70
2018-04-24T04:02:54.653Z,85.70
2018-04-24T04:05:24.269Z,86.00
2018-04-24T04:08:04.001Z,86.00
2018-04-24T04:10:49.524Z,85.70
2018-04-24T04:13:17.087Z,85.70
2018-04-24T04:15:44.819Z,85.70
2018-04-24T04:18:25.515Z,85.30
2018-04-24T04:21:11.668Z,85.10
2018-04-24T04:23:59.397Z,85.10
2018-04-24T04:26:26.893Z,85.30
2018-04-24T04:28:56.515Z,85.00
2018-04-24T04:31:28.877Z,85.50
2018-04-24T04:33:56.455Z,85.20
2018-04-24T04:36:32.054Z,85.10
2018-04-24T04:39:00.772Z,85.10
2018-04-24T04:41:28.278Z,85.10
2018-04-24T04:44:06.441Z,85.20
2018-04-24T04:46:35.750Z,84.80
2018-04-24T04:49:15.779Z,84.80
2018-04-24T04:51:46.930Z,84.80
2018-04-24T04:54:14.439Z,84.80
2018-04-24T04:56:43.089Z,84.90
2018-04-24T04:59:10.849Z,84.50
2018-04-24T05:01:42.931Z,84.40
2018-04-24T05:04:13.184Z,84.40
2018-04-24T05:06:40.889Z,84.40
2018-04-24T05:09:10.503Z,84.60
2018-04-24T05:11:40.132Z,84.70
2018-04-24T05:14:30.661Z,84.90
2018-04-24T05:17:06.250Z,85.00
2018-04-24T05:19:44.896Z,84.40
2018-04-24T05:22:30.111Z,84.20
2018-04-24T05:24:58.545Z,84.30
2018-04-24T05:27:40.406Z,84.20
2018-04-24T05:30:10.029Z,84.10
2018-04-24T05:32:46.143Z,84.10
2018-04-24T05:35:14.964Z,83.60
2018-04-24T05:37:42.547Z,83.50
2018-04-24T05:40:11.265Z,83.50
2018-04-24T05:42:39.929Z,83.70
2018-04-24T05:45:07.445Z,83.90
2018-04-24T05:47:36.094Z,83.70
2018-04-24T05:50:04.755Z,83.50
2018-04-24T05:52:38.083Z,83.50
2018-04-24T05:55:09.815Z,83.90
2018-04-24T05:57:37.327Z,83.70
2018-04-24T06:00:06.003Z,83.40
2018-04-24T06:02:35.564Z,83.00
2018-04-24T06:05:07.633Z,83.60
2018-04-24T06:07:41.200Z,83.20
2018-04-24T06:10:08.743Z,82.30
2018-04-24T06:12:37.384Z,81.80
2018-04-24T06:15:16.516Z,82.00
2018-04-24T06:17:45.313Z,82.10
2018-04-24T06:20:20.639Z,81.60
2018-04-24T06:22:51.803Z,81.40
2018-04-24T06:25:19.341Z,81.60
2018-04-24T06:27:47.043Z,81.70
2018-04-24T06:30:27.062Z,81.10
2018-04-24T06:32:55.779Z,81.10
2018-04-24T06:35:35.183Z,81.30
2018-04-24T06:38:09.099Z,80.60
2018-04-24T06:40:36.711Z,80.60
2018-04-24T06:43:05.275Z,80.40
2018-04-24T06:45:34.914Z,80.30
2018-04-24T06:48:02.646Z,80.10
2018-04-24T06:50:31.325Z,79.90
2018-04-24T06:53:07.395Z,80.70
2018-04-24T06:55:37.605Z,80.40
2018-04-24T06:58:24.785Z,80.40
2018-04-24T07:01:00.132Z,80.80
2018-04-24T07:03:29.779Z,80.80
2018-04-24T07:06:00.939Z,80.60
2018-04-24T07:08:30.233Z,79.60
2018-04-24T07:11:01.090Z,79.60
2018-04-24T07:13:32.809Z,79.00
2018-04-24T07:16:01.520Z,78.50
2018-04-24T07:18:30.809Z,78.70
2018-04-24T07:20:59.493Z,78.60
2018-04-24T07:23:34.337Z,79.40
2018-04-24T07:26:03.632Z,79.30
2018-04-24T07:28:38.127Z,79.20
2018-04-24T07:31:05.627Z,79.20
2018-04-24T07:33:33.134Z,79.10
2018-04-24T07:36:00.847Z,79.50
2018-04-24T07:38:29.214Z,79.30
2018-04-24T07:40:57.889Z,79.30
2018-04-24T07:43:25.494Z,79.70
2018-04-24T07:45:54.950Z,79.70
2018-04-24T07:48:35.322Z,78.40
2018-04-24T07:51:12.909Z,78.30
2018-04-24T07:53:52.352Z,77.80
2018-04-24T07:56:19.865Z,77.60
2018-04-24T07:58:47.579Z,77.30
2018-04-24T08:01:22.392Z,77.60
2018-04-24T08:04:03.954Z,77.70
2018-04-24T08:06:43.724Z,78.30
2018-04-24T08:09:13.368Z,78.50
2018-04-24T08:11:42.973Z,77.30
2018-04-24T08:14:14.134Z,78.30
2018-04-24T08:16:52.714Z,78.50
2018-04-24T08:19:20.393Z,77.40
2018-04-24T08:22:09.104Z,77.80
2018-04-24T08:24:39.648Z,76.50
2018-04-24T08:27:23.926Z,76.50
2018-04-24T08:30:02.744Z,76.20
2018-04-24T08:32:36.658Z,75.50
2018-04-24T08:35:06.282Z,74.90
2018-04-24T08:37:38.380Z,75.70
2018-04-24T08:40:16.529Z,76.70
2018-04-24T08:43:05.597Z,77.10
2018-04-24T08:45:38.205Z,79.10
2018-04-24T08:48:06.925Z,79.10
2018-04-24T08:50:45.391Z,79.50
2018-04-24T08:53:25.435Z,80.20
2018-04-24T08:58:46.219Z,80.50
2018-04-24T09:01:13.948Z,80.40
2018-04-24T09:03:41.455Z,80.00
2018-04-24T09:06:11.026Z,78.40
2018-04-24T09:08:38.623Z,78.20
2018-04-24T09:11:06.259Z,77.20
2018-04-24T09:13:34.939Z,77.70
2018-04-24T09:16:14.047Z,79.30
2018-04-24T09:18:41.539Z,78.10
2018-04-24T09:21:10.205Z,77.50
2018-04-24T09:23:38.894Z,77.70
2018-04-24T09:26:06.415Z,76.50
2018-04-24T09:28:34.116Z,76.70
2018-04-24T09:31:01.627Z,75.50
2018-04-24T09:33:29.381Z,75.50
2018-04-24T09:35:56.992Z,76.10
2018-04-24T09:38:25.470Z,76.90
2018-04-24T09:40:52.987Z,76.50
2018-04-24T09:43:24.084Z,76.60
2018-04-24T09:48:55.661Z,76.00
2018-04-24T09:51:29.778Z,75.10
2018-04-24T09:53:59.471Z,74.30
2018-04-24T09:56:43.771Z,73.50
2018-04-24T09:59:13.385Z,73.20
2018-04-24T10:01:44.818Z,74.30
2018-04-24T10:04:12.349Z,76.00
2018-04-24T10:06:40.022Z,76.40
2018-04-24T10:09:13.940Z,76.60
2018-04-24T10:11:46.613Z,77.30
2018-04-24T10:14:26.630Z,76.80
2018-04-24T10:17:08.183Z,77.40
2018-04-24T10:19:35.730Z,77.50
2018-04-24T10:22:11.123Z,78.20
2018-04-24T10:24:48.135Z,77.60
2018-04-24T10:27:21.787Z,77.00
2018-04-24T10:29:55.317Z,77.00
2018-04-24T10:32:34.202Z,77.70
2018-04-24T10:35:05.340Z,76.60
2018-04-24T10:37:32.944Z,76.90
2018-04-24T10:40:02.395Z,77.00
2018-04-24T10:42:33.632Z,76.40
2018-04-24T10:45:02.326Z,75.20
2018-04-24T10:47:43.760Z,75.70
2018-04-24T10:50:17.410Z,75.60
2018-04-24T10:52:46.089Z,75.20
2018-04-24T10:55:25.533Z,74.00
2018-04-24T10:58:00.092Z,73.50
2018-04-24T11:00:28.780Z,73.50
2018-04-24T11:02:56.510Z,73.50
2018-04-24T11:05:24.010Z,73.00
2018-04-24T11:07:51.757Z,72.90
2018-04-24T11:10:19.258Z,74.30
2018-04-24T11:12:53.097Z,73.50
2018-04-24T11:15:20.599Z,72.70
2018-04-24T11:17:51.694Z,72.90
2018-04-24T11:20:36.626Z,72.20
2018-04-24T11:25:57.138Z,69.40
2018-04-24T11:28:25.788Z,70.30
2018-04-24T11:31:12.262Z,71.20
2018-04-24T11:33:41.900Z,71.30
2018-04-24T11:36:21.047Z,71.10
2018-04-24T11:38:50.323Z,70.50
2018-04-24T11:41:26.426Z,70.50
2018-04-24T11:43:55.158Z,71.40
2018-04-24T11:46:22.600Z,71.90
2018-04-24T11:48:51.236Z,71.90
2018-04-24T11:51:25.093Z,72.20
2018-04-24T11:54:06.647Z,72.10
2018-04-24T11:56:36.449Z,71.80
2018-04-24T11:59:05.945Z,73.80
2018-04-24T12:01:54.324Z,73.80
2018-04-24T12:04:40.758Z,73.10
2018-04-24T12:07:10.409Z,73.70
2018-04-24T12:09:41.573Z,73.10
2018-04-24T12:12:21.870Z,71.50
2018-04-24T12:14:59.492Z,70.00
2018-04-24T12:17:35.348Z,69.20
2018-04-24T12:20:04.938Z,70.80
2018-04-24T12:22:32.618Z,70.80
2018-04-24T12:25:04.096Z,71.10
2018-04-24T12:27:53.690Z,70.10
2018-04-24T12:30:27.298Z,70.00
2018-04-24T12:33:11.559Z,70.50
2018-04-24T12:35:50.429Z,68.70
2018-04-24T12:38:34.805Z,68.80
2018-04-24T12:41:03.482Z,68.60
2018-04-24T12:43:49.034Z,69.20
2018-04-24T12:46:35.843Z,70.40
2018-04-24T12:49:14.661Z,70.40
2018-04-24T12:51:42.221Z,71.20
2018-04-24T12:54:22.183Z,71.40
2018-04-24T12:57:03.740Z,70.70
2018-04-24T12:59:36.910Z,70.40
2018-04-24T13:02:18.929Z,69.30
2018-04-24T13:04:46.471Z,68.80
2018-04-24T13:07:18.848Z,68.90
2018-04-24T13:09:57.337Z,67.30
2018-04-24T13:12:26.996Z,67.90
2018-04-24T13:14:56.829Z,66.20
2018-04-24T13:17:26.790Z,66.40
2018-04-24T13:19:55.512Z,65.20
2018-04-24T13:22:37.624Z,64.70
2018-04-24T13:25:07.293Z,64.50
2018-04-24T13:27:36.667Z,64.00
2018-04-24T13:30:19.357Z,64.00
2018-04-24T13:32:48.086Z,64.10
2018-04-24T13:35:16.801Z,64.10
2018-04-24T13:37:45.497Z,64.40
2018-04-24T13:40:13.241Z,64.50
2018-04-24T13:42:41.929Z,62.90
2018-04-24T13:45:09.481Z,63.70
2018-04-24T13:47:37.484Z,63.10
2018-04-24T13:50:05.221Z,62.20
2018-04-24T13:52:33.494Z,61.50
2018-04-24T13:55:08.123Z,61.50
2018-04-24T13:57:35.663Z,61.10
2018-04-24T14:00:03.364Z,61.10
2018-04-24T14:02:31.227Z,60.80
2018-04-24T14:04:59.016Z,60.40
2018-04-24T14:07:27.567Z,60.10
2018-04-24T14:09:55.166Z,59.70
2018-04-24T14:12:24.664Z,59.80
2018-04-24T14:15:02.807Z,59.30
2018-04-24T14:20:24.185Z,59.90
2018-04-24T14:22:57.755Z,58.70
2018-04-24T14:25:29.855Z,59.90
2018-04-24T14:28:02.867Z,61.20
2018-04-24T14:30:52.173Z,60.20
2018-04-24T14:36:18.018Z,61.00
2018-04-24T14:38:46.750Z,62.00
2018-04-24T14:41:32.583Z,61.00
2018-04-24T14:44:01.326Z,60.30
2018-04-24T14:46:32.172Z,60.20
2018-04-24T14:49:04.858Z,59.90
2018-04-24T14:54:35.752Z,60.30
2018-04-24T14:57:03.555Z,60.20
2018-04-24T14:59:31.578Z,60.80
2018-04-24T15:01:59.287Z,60.10
2018-04-24T15:04:27.072Z,60.10
2018-04-24T15:07:12.904Z,59.10
2018-04-24T15:09:45.174Z,59.10
2018-04-24T15:12:25.002Z,60.20
2018-04-24T15:14:59.280Z,60.20
2018-04-24T15:17:37.772Z,60.60
2018-04-24T15:20:08.653Z,60.40
2018-04-24T15:22:47.126Z,60.30
2018-04-24T15:25:16.790Z,61.10
2018-04-24T15:27:56.201Z,61.60
2018-04-24T15:30:38.675Z,61.60
2018-04-24T15:33:08.361Z,60.10
2018-04-24T15:35:36.156Z,60.00
2018-04-24T15:38:09.440Z,60.10
2018-04-24T15:40:44.803Z,60.60
2018-04-24T15:43:16.740Z,61.50
2018-04-24T15:45:44.352Z,62.30
2018-04-24T15:48:13.061Z,63.30
2018-04-24T15:50:40.931Z,63.10
2018-04-24T15:53:15.356Z,63.10
2018-04-24T15:55:44.686Z,63.10
2018-04-24T15:58:18.862Z,63.00
2018-04-24T16:01:05.402Z,61.80
2018-04-24T16:03:35.901Z,61.00
2018-04-24T16:06:06.754Z,61.00
2018-04-24T16:08:36.360Z,61.10
2018-04-24T16:11:03.916Z,61.20
2018-04-24T16:13:32.233Z,62.30
2018-04-24T16:16:02.734Z,61.50
2018-04-24T16:18:30.521Z,61.50
2018-04-24T16:21:06.279Z,62.30
2018-04-24T16:23:34.930Z,62.10
2018-04-24T16:26:16.450Z,63.00
2018-04-24T16:28:43.961Z,63.00
2018-04-24T16:31:17.858Z,62.30
2018-04-24T16:33:46.572Z,62.00
2018-04-24T16:36:14.339Z,61.70
2018-04-24T16:38:42.168Z,62.90
2018-04-24T16:41:10.769Z,62.90
2018-04-24T16:43:38.282Z,63.20
2018-04-24T16:46:06.952Z,64.00
2018-04-24T16:48:35.306Z,63.70
2018-04-24T16:51:03.726Z,63.60
2018-04-24T16:53:42.253Z,63.50
2018-04-24T16:56:10.976Z,64.60
2018-04-24T16:58:50.623Z,64.70
2018-04-24T17:01:22.810Z,64.60
2018-04-24T17:03:56.630Z,66.00
2018-04-24T17:06:35.169Z,65.90
2018-04-24T17:09:14.544Z,66.50
2018-04-24T17:11:42.079Z,66.70
2018-04-24T17:14:33.187Z,67.40
2018-04-24T17:17:02.811Z,66.60
2018-04-24T17:19:34.816Z,67.20
2018-04-24T17:22:02.343Z,66.80
2018-04-24T17:24:31.873Z,67.00
2018-04-24T17:27:10.701Z,67.20
2018-04-24T17:29:38.231Z,68.20
2018-04-24T17:34:58.682Z,69.20
2018-04-24T17:37:26.408Z,68.70
2018-04-24T17:39:57.257Z,68.70
2018-04-24T17:42:24.993Z,68.70
2018-04-24T17:45:03.178Z,68.30
2018-04-24T17:47:38.932Z,68.30
2018-04-24T17:50:06.445Z,68.40
2018-04-24T17:52:42.736Z,68.70
2018-04-24T17:55:12.363Z,68.80
2018-04-24T17:57:41.103Z,69.70
2018-04-24T18:00:12.528Z,69.70
2018-04-24T18:02:46.069Z,69.70
2018-04-24T18:05:16.658Z,70.20
2018-04-24T18:07:50.580Z,70.20
2018-04-24T18:10:19.350Z,71.10
2018-04-24T18:12:47.004Z,71.10
2018-04-24T18:15:14.810Z,71.30
2018-04-24T18:17:43.147Z,72.10
2018-04-24T18:20:11.557Z,71.90
2018-04-24T18:22:44.513Z,71.90
2018-04-24T18:25:16.243Z,72.20
2018-04-24T18:27:48.734Z,73.70
2018-04-24T18:30:18.269Z,72.70
2018-04-24T18:32:51.546Z,73.30
2018-04-24T18:35:19.913Z,74.00
2018-04-24T18:37:47.519Z,73.90
2018-04-24T18:40:15.154Z,74.10
2018-04-24T18:42:43.824Z,74.80
2018-04-24T18:45:11.361Z,75.00
2018-04-24T18:47:54.090Z,75.10
2018-04-24T18:50:22.822Z,76.00
2018-04-24T18:52:53.403Z,76.50
2018-04-24T18:55:25.426Z,76.20
2018-04-24T18:57:53.147Z,76.60
2018-04-24T19:00:23.053Z,76.70
2018-04-24T19:02:50.597Z,76.70
2018-04-24T19:05:22.261Z,76.90
2018-04-24T19:07:51.961Z,76.60
2018-04-24T19:10:29.466Z,77.40
2018-04-24T19:13:01.568Z,77.50
2018-04-24T19:15:35.158Z,77.10
2018-04-24T19:18:13.335Z,77.40
2018-04-24T19:20:47.542Z,78.10
2018-04-24T19:23:16.385Z,78.10
2018-04-24T19:25:45.878Z,78.60
2018-04-24T19:28:15.499Z,78.60
2018-04-24T19:30:44.896Z,79.40
2018-04-24T19:33:13.490Z,79.40
2018-04-24T19:35:41.032Z,79.60
2018-04-24T19:38:12.137Z,79.80
2018-04-24T19:40:51.399Z,80.00
2018-04-24T19:43:19.906Z,79.20
2018-04-24T19:45:48.294Z,80.40
2018-04-24T19:48:23.644Z,80.40
2018-04-24T19:50:57.628Z,80.10
2018-04-24T19:53:33.671Z,80.50
2018-04-24T19:56:05.149Z,80.50
2018-04-24T19:58:32.912Z,80.80
2018-04-24T20:01:11.132Z,80.80
2018-04-24T20:03:43.186Z,80.50
2018-04-24T20:06:17.412Z,80.50
2018-04-24T20:11:40.056Z,79.90
2018-04-24T20:14:07.740Z,80.10
2018-04-24T20:16:35.264Z,79.90
2018-04-24T20:19:03.952Z,80.40
2018-04-24T20:21:31.656Z,80.50
2018-04-24T20:24:06.446Z,80.80
2018-04-24T20:26:35.195Z,80.90
2018-04-24T20:29:15.147Z,80.50
2018-04-24T20:31:48.197Z,80.50
2018-04-24T20:34:19.039Z,80.40
2018-04-24T20:36:58.464Z,80.70
2018-04-24T20:39:31.771Z,80.40
2018-04-24T20:42:01.417Z,80.30
2018-04-24T20:44:29.145Z,80.90
2018-04-24T20:46:59.681Z,80.60
2018-04-24T20:49:27.254Z,81.30
2018-04-24T20:51:55.846Z,80.90
2018-04-24T20:54:35.272Z,81.40
2018-04-24T20:57:02.819Z,81.30
2018-04-24T20:59:34.203Z,81.50
2018-04-24T21:02:01.955Z,81.20
2018-04-24T21:04:36.755Z,81.50
2018-04-24T21:07:15.899Z,81.50
2018-04-24T21:09:43.443Z,81.80
2018-04-24T21:12:17.565Z,81.70
2018-04-24T21:14:47.200Z,81.30
2018-04-24T21:17:18.813Z,81.40
2018-04-24T21:19:46.393Z,81.40
2018-04-24T21:22:18.193Z,81.30
2018-04-24T21:24:52.804Z,81.30
2018-04-24T21:27:25.982Z,81.00
2018-04-24T21:29:59.326Z,81.40
2018-04-24T21:32:27.082Z,81.40
2018-04-24T21:35:06.838Z,82.50
2018-04-24T21:37:41.966Z,82.20
2018-04-24T21:40:09.728Z,82.70
2018-04-24T21:42:37.458Z,82.70
2018-04-24T21:45:09.258Z,82.80
2018-04-24T21:47:42.573Z,83.20
2018-04-24T21:50:10.298Z,83.20
2018-04-24T21:52:37.836Z,83.80
2018-04-24T21:55:08.891Z,84.00
2018-04-24T21:57:42.240Z,85.20
2018-04-24T22:00:09.959Z,85.20
2018-04-24T22:02:42.698Z,85.00
2018-04-24T22:05:10.467Z,85.20
2018-04-24T22:07:39.071Z,85.70
2018-04-24T22:10:15.747Z,86.00
2018-04-24T22:12:49.040Z,85.90
2018-04-24T22:15:21.139Z,85.70
2018-04-24T22:17:57.143Z,85.70
2018-04-24T22:20:31.071Z,85.70
2018-04-24T22:23:00.703Z,85.40
2018-04-24T22:25:47.148Z,85.60
2018-04-24T22:28:15.585Z,85.50
2018-04-24T22:30:57.739Z,85.60
2018-04-24T22:33:38.701Z,85.80
2018-04-24T22:36:19.085Z,85.90
2018-04-24T22:38:49.974Z,86.50
2018-04-24T22:41:17.515Z,86.90
2018-04-24T22:43:47.047Z,86.60
2018-04-24T22:46:14.813Z,86.60
2018-04-24T22:48:44.413Z,86.50
2018-04-24T22:51:15.869Z,86.50
2018-04-24T22:53:43.387Z,86.70
2018-04-24T22:56:11.757Z,85.90
2018-04-24T22:58:45.897Z,85.80
2018-04-24T23:01:20.721Z,85.60
2018-04-24T23:03:51.286Z,85.60
2018-04-24T23:06:18.812Z,85.40
2018-04-24T23:08:53.856Z,85.30
2018-04-24T23:11:33.088Z,85.20
2018-04-24T23:14:12.763Z,85.20
2018-04-24T23:16:52.093Z,85.10
2018-04-24T23:19:32.488Z,85.30
2018-04-24T23:22:17.442Z,85.20
2018-04-24T23:24:49.900Z,85.30
2018-04-24T23:27:17.395Z,85.50
2018-04-24T23:29:45.310Z,85.60
2018-04-24T23:32:18.437Z,85.90
2018-04-24T23:34:50.466Z,86.00
2018-04-24T23:37:30.816Z,86.10
2018-04-24T23:40:06.858Z,86.10
2018-04-24T23:42:38.051Z,86.30
2018-04-24T23:45:06.714Z,86.60
2018-04-24T23:47:36.340Z,86.90
2018-04-24T23:50:04.730Z,87.10
2018-04-24T23:58:16.571Z,86.90
